createdAt,value
2023-05-16T00:00:53.292Z,12.60
2023-05-16T00:03:22.153Z,12.60
2023-05-16T00:05:50.779Z,12.50
2023-05-16T00:08:20.673Z,12.50
2023-05-16T00:10:49.127Z,12.50
2023-05-16T00:13:22.278Z,12.50
2023-05-16T00:15:51.862Z,12.50
2023-05-16T00:18:22.223Z,12.50
2023-05-16T00:20:51.961Z,12.60
2023-05-16T00:23:21.848Z,12.60
2023-05-16T00:25:50.467Z,12.50
2023-05-16T00:28:18.942Z,12.40
2023-05-16T00:30:47.353Z,12.40
2023-05-16T00:33:16.110Z,12.40
2023-05-16T00:35:44.672Z,12.40
2023-05-16T00:38:13.190Z,12.40
2023-05-16T00:40:43.028Z,12.50
2023-05-16T00:43:11.476Z,12.50
2023-05-16T00:45:40.161Z,12.50
2023-05-16T00:48:09.407Z,12.40
2023-05-16T00:50:38.562Z,12.40
2023-05-16T00:53:07.129Z,12.30
2023-05-16T00:55:35.847Z,12.30
2023-05-16T00:58:06.719Z,12.40
2023-05-16T01:00:36.239Z,12.40
2023-05-16T01:03:05.895Z,12.40
2023-05-16T01:05:34.780Z,12.30
2023-05-16T01:08:04.008Z,12.20
2023-05-16T01:10:41.225Z,12.10
2023-05-16T01:13:14.368Z,12.20
2023-05-16T01:15:48.261Z,12.20
2023-05-16T01:18:23.570Z,12.30
2023-05-16T01:20:56.905Z,12.30
2023-05-16T01:23:36.627Z,12.30
2023-05-16T01:26:28.002Z,12.30
2023-05-16T01:28:56.537Z,12.30
2023-05-16T01:31:25.156Z,12.20
2023-05-16T01:33:53.625Z,12.30
2023-05-16T01:36:26.719Z,12.20
2023-05-16T01:39:03.007Z,12.30
2023-05-16T01:41:42.181Z,12.30
2023-05-16T01:44:18.257Z,12.30
2023-05-16T01:46:48.580Z,12.20
2023-05-16T01:49:19.875Z,12.30
2023-05-16T01:51:52.935Z,12.30
2023-05-16T01:54:23.043Z,12.40
2023-05-16T01:56:53.926Z,12.30
2023-05-16T01:59:23.112Z,12.30
2023-05-16T02:01:52.560Z,12.10
2023-05-16T02:04:21.362Z,12.10
2023-05-16T02:06:49.969Z,12.20
2023-05-16T02:09:18.457Z,12.20
2023-05-16T02:11:47.643Z,12.20
2023-05-16T02:14:17.532Z,12.20
2023-05-16T02:16:46.037Z,12.20
2023-05-16T02:19:14.607Z,12.10
2023-05-16T02:21:43.235Z,12.20
2023-05-16T02:24:11.649Z,12.10
2023-05-16T02:26:40.158Z,12.10
2023-05-16T02:29:08.693Z,12.10
2023-05-16T02:31:38.576Z,12.10
2023-05-16T02:34:07.374Z,12.10
2023-05-16T02:36:36.501Z,12.10
2023-05-16T02:39:05.079Z,12.10
2023-05-16T02:41:33.486Z,12.10
2023-05-16T02:44:01.879Z,12.10
2023-05-16T02:46:31.622Z,12.10
2023-05-16T02:49:01.905Z,12.10
2023-05-16T02:51:30.491Z,12.20
2023-05-16T02:53:59.926Z,12.20
2023-05-16T02:56:28.679Z,12.20
2023-05-16T02:58:57.214Z,12.30
2023-05-16T03:01:25.641Z,12.30
2023-05-16T03:03:54.393Z,12.30
2023-05-16T03:06:24.427Z,12.30
2023-05-16T03:08:52.855Z,12.30
2023-05-16T03:11:21.802Z,12.20
2023-05-16T03:13:50.571Z,12.20
2023-05-16T03:16:19.030Z,12.20
2023-05-16T03:18:47.619Z,12.20
2023-05-16T03:21:16.132Z,12.10
2023-05-16T03:23:46.109Z,12.10
2023-05-16T03:26:14.547Z,12.10
2023-05-16T03:28:42.983Z,12.10
2023-05-16T03:31:11.563Z,12.10
2023-05-16T03:33:40.077Z,12.10
2023-05-16T03:36:09.174Z,12.10
2023-05-16T03:38:37.733Z,12.10
2023-05-16T03:41:07.549Z,12.10
2023-05-16T03:43:36.012Z,12.10
2023-05-16T03:46:04.507Z,12.10
2023-05-16T03:48:32.976Z,12.00
2023-05-16T03:51:01.394Z,11.90
2023-05-16T03:53:29.826Z,11.90
2023-05-16T03:55:58.229Z,11.90
2023-05-16T03:58:28.309Z,11.90
2023-05-16T04:00:56.787Z,12.00
2023-05-16T04:03:28.658Z,12.00
2023-05-16T04:05:57.669Z,11.90
2023-05-16T04:08:26.291Z,11.90
2023-05-16T04:10:54.716Z,11.90
2023-05-16T04:13:23.183Z,11.90
2023-05-16T04:15:53.045Z,11.90
2023-05-16T04:18:21.430Z,11.90
2023-05-16T04:20:50.207Z,11.90
2023-05-16T04:23:18.658Z,12.00
2023-05-16T04:25:47.132Z,12.00
2023-05-16T04:28:15.697Z,12.00
2023-05-16T04:30:44.121Z,12.10
2023-05-16T04:33:14.076Z,12.10
2023-05-16T04:35:43.120Z,12.10
2023-05-16T04:38:11.598Z,12.10
2023-05-16T04:40:40.440Z,12.10
2023-05-16T04:43:09.109Z,12.20
2023-05-16T04:45:38.031Z,12.10
2023-05-16T04:48:06.907Z,12.10
2023-05-16T04:50:36.745Z,12.10
2023-05-16T04:53:05.210Z,12.20
2023-05-16T04:55:33.689Z,12.10
2023-05-16T04:58:02.132Z,12.10
2023-05-16T05:00:30.695Z,12.20
2023-05-16T05:02:59.246Z,12.20
2023-05-16T05:05:28.199Z,12.30
2023-05-16T05:07:59.448Z,12.30
2023-05-16T05:10:28.405Z,12.30
2023-05-16T05:12:56.849Z,12.30
2023-05-16T05:15:25.486Z,12.30
2023-05-16T05:17:54.113Z,12.30
2023-05-16T05:20:23.394Z,12.30
2023-05-16T05:22:51.926Z,12.30
2023-05-16T05:25:21.747Z,12.30
2023-05-16T05:27:50.252Z,12.30
2023-05-16T05:30:18.647Z,12.30
2023-05-16T05:32:47.197Z,12.30
2023-05-16T05:35:16.339Z,12.40
2023-05-16T05:37:44.898Z,12.50
2023-05-16T05:40:13.609Z,12.30
2023-05-16T05:42:45.366Z,12.30
2023-05-16T05:45:16.080Z,12.40
2023-05-16T05:47:45.015Z,12.30
2023-05-16T05:50:15.828Z,12.40
2023-05-16T05:52:44.339Z,12.40
2023-05-16T05:55:12.815Z,12.40
2023-05-16T05:57:41.239Z,12.50
2023-05-16T06:00:17.029Z,12.30
2023-05-16T06:02:45.646Z,12.30
2023-05-16T06:05:14.162Z,12.30
2023-05-16T06:07:42.651Z,12.30
2023-05-16T06:10:11.434Z,12.40
2023-05-16T06:12:39.950Z,12.40
2023-05-16T06:15:11.694Z,12.40
2023-05-16T06:17:40.303Z,12.40
2023-05-16T06:20:09.809Z,12.50
2023-05-16T06:22:38.313Z,12.50
2023-05-16T06:25:07.514Z,12.60
2023-05-16T06:27:35.941Z,12.60
2023-05-16T06:30:04.796Z,12.60
2023-05-16T06:32:34.647Z,12.60
2023-05-16T06:35:03.242Z,12.60
2023-05-16T06:37:31.742Z,12.60
2023-05-16T06:40:00.302Z,12.60
2023-05-16T06:42:28.793Z,12.60
2023-05-16T06:44:57.251Z,12.70
2023-05-16T06:47:25.817Z,12.60
2023-05-16T06:49:55.895Z,12.60
2023-05-16T06:52:24.330Z,12.50
2023-05-16T06:54:53.858Z,12.50
2023-05-16T06:57:22.315Z,12.40
2023-05-16T06:59:50.876Z,12.50
2023-05-16T07:02:19.461Z,12.40
2023-05-16T07:04:48.488Z,12.40
2023-05-16T07:07:18.435Z,12.40
2023-05-16T07:09:46.879Z,12.40
2023-05-16T07:12:15.385Z,12.40
2023-05-16T07:14:44.307Z,12.40
2023-05-16T07:17:12.917Z,12.40
2023-05-16T07:19:41.506Z,12.50
2023-05-16T07:22:11.106Z,12.50
2023-05-16T07:24:40.963Z,12.50
2023-05-16T07:27:09.458Z,12.60
2023-05-16T07:29:38.053Z,12.60
2023-05-16T07:32:07.801Z,12.60
2023-05-16T07:34:36.420Z,12.70
2023-05-16T07:37:05.187Z,12.60
2023-05-16T07:39:33.970Z,12.70
2023-05-16T07:42:03.832Z,12.80
2023-05-16T07:44:32.199Z,12.80
2023-05-16T07:47:00.683Z,12.80
2023-05-16T07:49:29.231Z,12.90
2023-05-16T07:51:57.741Z,13.00
2023-05-16T07:54:26.305Z,13.00
2023-05-16T07:56:54.802Z,13.00
2023-05-16T07:59:24.798Z,13.00
2023-05-16T08:01:53.330Z,13.00
2023-05-16T08:04:21.892Z,13.00
2023-05-16T08:06:50.521Z,13.00
2023-05-16T08:09:19.271Z,13.10
2023-05-16T08:11:47.854Z,13.20
2023-05-16T08:14:16.473Z,13.20
2023-05-16T08:16:46.377Z,13.20
2023-05-16T08:19:15.033Z,13.30
2023-05-16T08:21:43.672Z,13.20
2023-05-16T08:24:12.260Z,13.20
2023-05-16T08:26:40.690Z,13.20
2023-05-16T08:29:09.129Z,13.20
2023-05-16T08:31:37.776Z,13.20
2023-05-16T08:34:07.669Z,13.20
2023-05-16T08:36:36.285Z,13.20
2023-05-16T08:39:04.940Z,13.20
2023-05-16T08:41:33.380Z,13.20
2023-05-16T08:44:01.840Z,13.20
2023-05-16T08:46:31.119Z,13.30
2023-05-16T08:49:01.576Z,13.30
2023-05-16T08:51:35.429Z,13.30
2023-05-16T08:54:05.973Z,13.20
2023-05-16T08:56:35.623Z,13.30
2023-05-16T08:59:04.483Z,13.30
2023-05-16T09:01:33.251Z,13.40
2023-05-16T09:04:02.376Z,13.30
2023-05-16T09:06:32.421Z,13.40
2023-05-16T09:09:00.913Z,13.60
2023-05-16T09:11:29.977Z,13.60
2023-05-16T09:14:00.769Z,13.70
2023-05-16T09:16:29.204Z,13.60
2023-05-16T09:18:59.573Z,13.60
2023-05-16T09:21:29.493Z,13.60
2023-05-16T09:24:04.897Z,13.60
2023-05-16T09:26:34.206Z,13.70
2023-05-16T09:29:02.873Z,13.60
2023-05-16T09:31:36.836Z,13.70
2023-05-16T09:34:05.987Z,13.70
2023-05-16T09:36:34.995Z,13.70
2023-05-16T09:39:04.935Z,13.70
2023-05-16T09:41:35.254Z,13.70
2023-05-16T09:44:05.703Z,13.70
2023-05-16T09:46:36.241Z,13.60
2023-05-16T09:49:04.776Z,13.60
2023-05-16T09:51:33.554Z,13.70
2023-05-16T09:54:01.971Z,13.70
2023-05-16T09:56:31.811Z,13.70
2023-05-16T09:59:00.218Z,13.80
2023-05-16T10:01:28.780Z,13.70
2023-05-16T10:03:57.299Z,13.70
2023-05-16T10:06:26.264Z,13.70
2023-05-16T10:08:54.765Z,13.70
2023-05-16T10:11:23.527Z,13.70
2023-05-16T10:13:54.106Z,13.70
2023-05-16T10:16:24.638Z,13.70
2023-05-16T10:18:53.901Z,13.70
2023-05-16T10:21:23.771Z,13.60
2023-05-16T10:23:53.449Z,13.70
2023-05-16T10:26:22.469Z,13.70
2023-05-16T10:28:51.308Z,13.70
2023-05-16T10:31:21.187Z,13.70
2023-05-16T10:33:50.466Z,13.70
2023-05-16T10:36:19.231Z,13.60
2023-05-16T10:38:48.055Z,13.60
2023-05-16T10:41:16.779Z,13.70
2023-05-16T10:43:46.883Z,13.70
2023-05-16T10:46:15.932Z,13.50
2023-05-16T10:48:45.896Z,13.50
2023-05-16T10:51:37.166Z,13.60
2023-05-16T10:54:10.444Z,13.60
2023-05-16T10:56:39.321Z,13.70
2023-05-16T10:59:24.372Z,13.70
2023-05-16T11:01:54.957Z,13.60
2023-05-16T11:04:25.006Z,13.50
2023-05-16T11:06:54.769Z,13.50
2023-05-16T11:09:28.435Z,13.60
2023-05-16T11:11:59.862Z,13.60
2023-05-16T11:14:32.028Z,13.60
2023-05-16T11:17:06.145Z,13.50
2023-05-16T11:19:40.514Z,13.40
2023-05-16T11:22:10.175Z,13.50
2023-05-16T11:24:39.756Z,13.50
2023-05-16T11:27:08.333Z,13.60
2023-05-16T11:29:37.474Z,13.60
2023-05-16T11:32:06.686Z,13.60
2023-05-16T11:34:39.680Z,13.60
2023-05-16T11:37:08.361Z,13.70
2023-05-16T11:39:37.199Z,13.80
2023-05-16T11:42:06.116Z,13.80
2023-05-16T11:44:34.592Z,13.90
2023-05-16T11:47:03.809Z,13.90
2023-05-16T11:49:33.457Z,13.90
2023-05-16T11:52:03.485Z,13.90
2023-05-16T11:54:32.193Z,13.90
2023-05-16T11:57:00.755Z,13.90
2023-05-16T11:59:29.293Z,13.90
2023-05-16T12:01:58.011Z,13.90
2023-05-16T12:04:26.754Z,13.80
2023-05-16T12:07:03.929Z,13.80
2023-05-16T12:09:32.599Z,13.70
2023-05-16T12:12:01.590Z,13.80
2023-05-16T12:14:30.153Z,13.90
2023-05-16T12:16:58.826Z,13.90
2023-05-16T12:19:27.926Z,13.90
2023-05-16T12:21:56.694Z,13.90
2023-05-16T12:24:32.594Z,14.00
2023-05-16T12:27:01.105Z,14.00
2023-05-16T12:29:29.565Z,14.00
2023-05-16T12:31:58.144Z,14.10
2023-05-16T12:34:30.833Z,14.10
2023-05-16T12:37:02.080Z,14.20
2023-05-16T12:39:38.631Z,14.30
2023-05-16T12:42:09.617Z,14.20
2023-05-16T12:44:38.124Z,14.20
2023-05-16T12:47:13.667Z,14.20
2023-05-16T12:49:46.801Z,14.30
2023-05-16T12:52:20.710Z,14.30
2023-05-16T12:54:50.650Z,14.30
2023-05-16T12:57:20.064Z,14.30
2023-05-16T12:59:48.612Z,14.40
2023-05-16T13:02:18.974Z,14.40
2023-05-16T13:04:47.604Z,14.20
2023-05-16T13:07:17.589Z,14.30
2023-05-16T13:09:46.067Z,14.30
2023-05-16T13:12:15.930Z,14.30
2023-05-16T13:14:45.157Z,14.20
2023-05-16T13:17:13.588Z,14.20
2023-05-16T13:19:42.083Z,14.10
2023-05-16T13:22:10.543Z,14.00
2023-05-16T13:24:39.085Z,14.00
2023-05-16T13:27:08.749Z,14.00
2023-05-16T13:29:38.583Z,14.00
2023-05-16T13:32:07.668Z,13.90
2023-05-16T13:34:36.275Z,14.00
2023-05-16T13:37:05.018Z,14.00
2023-05-16T13:39:33.478Z,14.00
2023-05-16T13:42:03.213Z,14.10
2023-05-16T13:44:31.730Z,14.10
2023-05-16T13:47:01.560Z,14.00
2023-05-16T13:49:30.068Z,14.00
2023-05-16T13:51:59.141Z,13.90
2023-05-16T13:54:27.566Z,13.90
2023-05-16T13:56:56.063Z,13.90
2023-05-16T13:59:44.991Z,13.80
2023-05-16T14:02:14.352Z,13.80
2023-05-16T14:04:42.833Z,13.70
2023-05-16T14:07:11.374Z,13.70
2023-05-16T14:09:40.114Z,13.60
2023-05-16T14:12:09.550Z,13.70
2023-05-16T14:14:38.179Z,13.60
2023-05-16T14:17:07.545Z,13.60
2023-05-16T14:19:37.396Z,13.50
2023-05-16T14:22:06.314Z,13.40
2023-05-16T14:24:34.911Z,13.40
2023-05-16T14:27:03.421Z,13.40
2023-05-16T14:29:31.926Z,13.40
2023-05-16T14:32:00.646Z,13.30
2023-05-16T14:34:29.285Z,13.40
2023-05-16T14:36:59.267Z,13.40
2023-05-16T14:39:28.199Z,13.30
2023-05-16T14:41:56.659Z,13.30
2023-05-16T14:44:25.152Z,13.30
2023-05-16T14:46:53.570Z,13.20
2023-05-16T14:49:22.072Z,13.30
2023-05-16T14:51:51.038Z,13.30
2023-05-16T14:54:21.518Z,13.20
2023-05-16T14:56:49.974Z,13.20
2023-05-16T14:59:18.618Z,13.20
2023-05-16T15:01:47.118Z,13.20
2023-05-16T15:04:15.990Z,13.20
2023-05-16T15:06:44.545Z,13.10
2023-05-16T15:09:13.576Z,13.00
2023-05-16T15:11:43.416Z,12.90
2023-05-16T15:14:11.993Z,12.80
2023-05-16T15:16:40.555Z,12.70
2023-05-16T15:19:09.370Z,12.70
2023-05-16T15:21:38.090Z,12.60
2023-05-16T15:24:08.298Z,12.60
2023-05-16T15:26:37.636Z,12.60
2023-05-16T15:29:07.690Z,12.60
2023-05-16T15:31:36.383Z,12.60
2023-05-16T15:34:06.298Z,12.60
2023-05-16T15:36:34.854Z,12.50
2023-05-16T15:39:03.869Z,12.50
2023-05-16T15:44:07.343Z,12.30
2023-05-16T15:46:35.931Z,12.20
2023-05-16T15:49:04.517Z,12.10
2023-05-16T15:51:33.036Z,12.20
2023-05-16T15:54:01.588Z,12.30
2023-05-16T15:56:30.175Z,12.30
2023-05-16T15:58:58.629Z,12.40
2023-05-16T16:01:28.610Z,12.40
2023-05-16T16:03:57.219Z,12.50
2023-05-16T16:06:25.801Z,12.50
2023-05-16T16:08:54.389Z,12.40
2023-05-16T16:11:23.470Z,12.40
2023-05-16T16:13:52.246Z,12.40
2023-05-16T16:16:20.814Z,12.40
2023-05-16T16:18:51.091Z,12.40
2023-05-16T16:21:19.585Z,12.40
2023-05-16T16:23:48.132Z,12.40
2023-05-16T16:26:17.386Z,12.40
2023-05-16T16:28:45.877Z,12.50
2023-05-16T16:31:14.410Z,12.60
2023-05-16T16:33:43.117Z,12.70
2023-05-16T16:36:13.000Z,12.80
2023-05-16T16:38:41.645Z,12.70
2023-05-16T16:41:10.350Z,12.70
2023-05-16T16:43:40.435Z,12.60
2023-05-16T16:46:09.432Z,12.60
2023-05-16T16:48:38.228Z,12.50
2023-05-16T16:51:06.851Z,12.50
2023-05-16T16:53:37.892Z,12.50
2023-05-16T16:56:06.985Z,12.30
2023-05-16T16:58:35.501Z,12.30
2023-05-16T17:01:04.107Z,12.20
2023-05-16T17:03:32.723Z,12.10
2023-05-16T17:06:01.242Z,12.20
2023-05-16T17:08:29.692Z,12.10
2023-05-16T17:10:59.840Z,12.20
2023-05-16T17:13:33.566Z,12.20
2023-05-16T17:16:02.174Z,12.20
2023-05-16T17:18:32.992Z,12.20
2023-05-16T17:21:03.039Z,12.20
2023-05-16T17:23:32.756Z,12.20
2023-05-16T17:26:02.787Z,12.20
2023-05-16T17:28:32.516Z,12.10
2023-05-16T17:31:04.038Z,12.00
2023-05-16T17:33:32.906Z,12.00
2023-05-16T17:36:01.689Z,12.00
2023-05-16T17:38:30.458Z,12.00
2023-05-16T17:40:59.006Z,12.00
2023-05-16T17:43:31.160Z,12.00
2023-05-16T17:45:59.791Z,12.00
2023-05-16T17:48:28.564Z,11.90
2023-05-16T17:50:57.166Z,11.90
2023-05-16T17:53:26.721Z,11.90
2023-05-16T17:55:55.249Z,11.90
2023-05-16T17:58:23.720Z,11.90
2023-05-16T18:00:53.798Z,11.80
2023-05-16T18:03:22.296Z,11.80
2023-05-16T18:05:51.037Z,11.70
2023-05-16T18:08:19.735Z,11.70
2023-05-16T18:10:51.929Z,11.80
2023-05-16T18:13:22.033Z,11.80
2023-05-16T18:15:50.782Z,11.70
2023-05-16T18:18:20.962Z,11.70
2023-05-16T18:20:50.828Z,11.80
2023-05-16T18:23:19.360Z,11.70
2023-05-16T18:25:47.937Z,11.80
2023-05-16T18:28:16.389Z,11.80
2023-05-16T18:30:45.176Z,11.70
2023-05-16T18:33:14.271Z,11.70
2023-05-16T18:35:44.137Z,11.60
2023-05-16T18:38:28.385Z,11.60
2023-05-16T18:41:00.206Z,11.50
2023-05-16T18:43:28.813Z,11.50
2023-05-16T18:45:57.844Z,11.60
2023-05-16T18:48:26.417Z,11.50
2023-05-16T18:50:56.505Z,11.60
2023-05-16T18:53:25.125Z,11.50
2023-05-16T18:55:53.686Z,11.50
2023-05-16T18:58:22.166Z,11.50
2023-05-16T19:00:50.688Z,11.30
2023-05-16T19:03:19.359Z,11.30
2023-05-16T19:05:48.333Z,11.20
2023-05-16T19:08:18.353Z,11.20
2023-05-16T19:10:46.873Z,11.20
2023-05-16T19:13:15.358Z,11.20
2023-05-16T19:15:43.786Z,11.30
2023-05-16T19:18:12.452Z,11.20
2023-05-16T19:20:42.704Z,11.20
2023-05-16T19:23:12.238Z,11.20
2023-05-16T19:25:47.228Z,11.10
2023-05-16T19:28:15.789Z,11.20
2023-05-16T19:30:44.333Z,11.00
2023-05-16T19:33:12.905Z,11.10
2023-05-16T19:35:41.483Z,11.10
2023-05-16T19:38:10.206Z,11.10
2023-05-16T19:40:38.771Z,11.10
2023-05-16T19:43:08.622Z,11.10
2023-05-16T19:45:37.376Z,11.10
2023-05-16T19:48:06.642Z,11.10
2023-05-16T19:50:35.186Z,11.10
2023-05-16T19:53:04.242Z,11.10
2023-05-16T19:55:33.501Z,11.00
2023-05-16T19:58:02.972Z,11.00
2023-05-16T20:00:33.076Z,11.00
2023-05-16T20:03:01.706Z,11.00
2023-05-16T20:05:30.860Z,11.00
2023-05-16T20:07:59.601Z,10.90
2023-05-16T20:10:28.263Z,10.90
2023-05-16T20:12:57.103Z,10.90
2023-05-16T20:15:25.878Z,10.90
2023-05-16T20:17:55.930Z,10.90
2023-05-16T20:20:24.938Z,10.90
2023-05-16T20:22:53.822Z,10.80
2023-05-16T20:25:22.536Z,10.90
2023-05-16T20:27:51.321Z,10.80
2023-05-16T20:30:20.220Z,10.80
2023-05-16T20:32:49.165Z,10.80
2023-05-16T20:35:19.203Z,10.90
2023-05-16T20:37:47.676Z,10.80
2023-05-16T20:40:16.260Z,10.80
2023-05-16T20:42:44.969Z,10.80
2023-05-16T20:45:13.462Z,10.80
2023-05-16T20:47:42.007Z,10.80
2023-05-16T20:50:12.841Z,10.70
2023-05-16T20:52:42.692Z,10.80
2023-05-16T20:55:11.171Z,10.80
2023-05-16T20:57:40.441Z,10.80
2023-05-16T21:00:11.086Z,10.70
2023-05-16T21:02:39.585Z,10.80
2023-05-16T21:05:23.371Z,10.70
2023-05-16T21:07:54.691Z,10.80
2023-05-16T21:10:23.186Z,10.80
2023-05-16T21:12:51.820Z,10.70
2023-05-16T21:15:23.051Z,10.60
2023-05-16T21:17:52.525Z,10.50
2023-05-16T21:20:21.232Z,10.50
2023-05-16T21:22:49.796Z,10.50
2023-05-16T21:25:19.614Z,10.50
2023-05-16T21:27:48.105Z,10.50
2023-05-16T21:30:16.725Z,10.50
2023-05-16T21:32:45.170Z,10.50
2023-05-16T21:35:13.739Z,10.60
2023-05-16T21:37:42.238Z,10.50
2023-05-16T21:40:14.699Z,10.50
2023-05-16T21:42:44.619Z,10.60
2023-05-16T21:45:16.511Z,10.70
2023-05-16T21:47:45.163Z,10.60
2023-05-16T21:50:14.340Z,10.60
2023-05-16T21:52:42.846Z,10.60
2023-05-16T21:55:11.557Z,10.60
2023-05-16T21:57:39.967Z,10.70
2023-05-16T22:00:11.130Z,10.70
2023-05-16T22:02:39.820Z,10.70
2023-05-16T22:05:09.405Z,10.70
2023-05-16T22:07:38.499Z,10.70
2023-05-16T22:10:07.918Z,10.70
2023-05-16T22:12:36.336Z,10.70
2023-05-16T22:15:05.411Z,10.70
2023-05-16T22:17:35.340Z,10.70
2023-05-16T22:20:03.920Z,10.60
2023-05-16T22:22:32.419Z,10.60
2023-05-16T22:25:01.175Z,10.60
2023-05-16T22:27:29.602Z,10.50
2023-05-16T22:29:58.052Z,10.30
2023-05-16T22:32:27.584Z,10.40
2023-05-16T22:34:57.665Z,10.30
2023-05-16T22:37:26.865Z,10.30
2023-05-16T22:39:56.999Z,10.40
2023-05-16T22:42:25.930Z,10.50
2023-05-16T22:44:54.352Z,10.60
2023-05-16T22:47:22.814Z,10.60
2023-05-16T22:49:51.246Z,10.60
2023-05-16T22:52:22.130Z,10.70
2023-05-16T22:54:50.603Z,10.70
2023-05-16T22:57:19.055Z,10.70
2023-05-16T22:59:47.539Z,10.70
2023-05-16T23:02:15.964Z,10.80
2023-05-16T23:04:44.671Z,10.70
2023-05-16T23:07:13.133Z,10.70
2023-05-16T23:09:43.023Z,10.70
2023-05-16T23:12:11.562Z,10.80
2023-05-16T23:14:40.003Z,10.80
2023-05-16T23:17:08.572Z,10.80
2023-05-16T23:19:37.093Z,10.70
2023-05-16T23:22:06.188Z,10.80
2023-05-16T23:24:34.674Z,10.70
2023-05-16T23:27:04.613Z,10.70
2023-05-16T23:29:33.103Z,10.80
2023-05-16T23:32:01.756Z,10.70
2023-05-16T23:34:30.303Z,10.70
2023-05-16T23:36:58.754Z,10.70
2023-05-16T23:39:27.251Z,10.70
2023-05-16T23:41:55.672Z,10.70
2023-05-16T23:44:25.530Z,10.70
2023-05-16T23:46:53.954Z,10.70
2023-05-16T23:49:22.391Z,10.70
2023-05-16T23:54:22.389Z,10.60
2023-05-16T23:56:51.088Z,10.60
2023-05-16T23:59:20.326Z,10.60
